Time;durP1;ratioP1;P1;durP2;ratioP2;P2;SDS_P1;SDS_P2;PMS_P1;PMS_P2;Temp;Humidity;BMP_temperature;BMP_pressure;BME280_temperature;BME280_humidity;BME280_pressure;Samples;Min_cycle;Max_cycle;Signal;HPM_P1;HPM_P2
2022/01/29 00:00:57;;;;;;;16.73;9.37;;;4.70;99.90;;;;;;5023230;28;20450;-69
2022/01/29 00:03:23;;;;;;;20.00;10.63;;;4.70;99.90;;;;;;5027173;28;20482;-69
2022/01/29 00:05:49;;;;;;;15.40;9.83;;;4.80;99.90;;;;;;5010123;28;20989;-69
2022/01/29 00:08:16;;;;;;;14.13;8.83;;;4.70;99.90;;;;;;5026683;28;20568;-69
2022/01/29 00:10:43;;;;;;;17.97;10.87;;;4.70;99.90;;;;;;5027383;28;20485;-69
2022/01/29 00:13:09;;;;;;;28.70;10.90;;;4.70;99.90;;;;;;5024788;28;20560;-69
2022/01/29 00:15:35;;;;;;;14.90;9.73;;;4.80;99.90;;;;;;5028215;28;20471;-69
2022/01/29 00:18:00;;;;;;;20.63;11.23;;;4.70;99.90;;;;;;5025173;28;20188;-69
2022/01/29 00:20:26;;;;;;;17.30;9.40;;;4.70;99.90;;;;;;5026935;28;20579;-69
2022/01/29 00:22:52;;;;;;;15.30;10.37;;;4.60;99.90;;;;;;5026661;28;20192;-69
2022/01/29 00:25:18;;;;;;;23.10;10.50;;;4.70;99.90;;;;;;5023992;28;20234;-69
2022/01/29 00:27:43;;;;;;;13.53;8.90;;;4.80;99.90;;;;;;5024475;28;20628;-69
2022/01/29 00:30:13;;;;;;;19.30;11.80;;;4.80;99.90;;;;;;5023557;28;20205;-70
2022/01/29 00:32:39;;;;;;;21.10;10.50;;;4.80;99.90;;;;;;4991726;28;20185;-69
2022/01/29 00:35:05;;;;;;;17.80;10.53;;;4.80;99.90;;;;;;5024707;28;20474;-69
2022/01/29 00:37:31;;;;;;;17.33;10.43;;;4.80;99.90;;;;;;5023513;28;20196;-69
2022/01/29 00:39:57;;;;;;;22.47;11.00;;;4.70;99.90;;;;;;5027001;28;21176;-69
2022/01/29 00:42:23;;;;;;;20.10;10.50;;;4.60;99.90;;;;;;5025890;28;20196;-69
2022/01/29 00:44:49;;;;;;;20.00;11.87;;;4.60;99.90;;;;;;5026294;28;20203;-70
2022/01/29 00:47:15;;;;;;;17.00;10.20;;;4.60;99.90;;;;;;5024161;28;20431;-69
2022/01/29 00:49:42;;;;;;;16.27;10.10;;;4.70;99.90;;;;;;5024050;28;20513;-70
2022/01/29 00:52:07;;;;;;;15.73;9.50;;;4.70;99.90;;;;;;5025625;28;20518;-69
2022/01/29 00:54:33;;;;;;;23.87;10.70;;;4.70;99.90;;;;;;5023799;28;20459;-69
2022/01/29 00:56:59;;;;;;;18.30;10.40;;;4.70;99.90;;;;;;5025452;28;20238;-69
2022/01/29 00:59:25;;;;;;;16.30;9.80;;;4.70;99.90;;;;;;5020836;28;20203;-70
2022/01/29 01:01:50;;;;;;;17.90;10.67;;;4.70;99.90;;;;;;5025529;28;20678;-68
2022/01/29 01:04:16;;;;;;;15.70;9.70;;;4.70;99.90;;;;;;5025022;28;20454;-69
2022/01/29 01:06:42;;;;;;;15.00;10.23;;;4.70;99.90;;;;;;5023401;28;20279;-70
2022/01/29 01:09:07;;;;;;;21.10;12.10;;;4.70;99.90;;;;;;5026543;28;20208;-69
2022/01/29 01:11:33;;;;;;;19.67;10.93;;;4.50;99.90;;;;;;5019797;28;20267;-69
2022/01/29 01:13:59;;;;;;;18.37;10.13;;;4.50;99.90;;;;;;5006431;28;20199;-70
2022/01/29 01:16:24;;;;;;;22.10;12.67;;;4.40;99.90;;;;;;5006685;28;20681;-69
2022/01/29 01:18:50;;;;;;;19.70;11.20;;;4.40;99.90;;;;;;5024810;28;20196;-69
2022/01/29 01:21:15;;;;;;;17.70;10.80;;;4.40;99.90;;;;;;5024943;28;20192;-69
2022/01/29 01:23:41;;;;;;;18.03;10.30;;;4.40;99.90;;;;;;5022816;28;20204;-69
2022/01/29 01:26:07;;;;;;;18.90;11.93;;;4.40;99.90;;;;;;5024845;28;20203;-69
2022/01/29 01:28:33;;;;;;;21.60;11.53;;;4.50;99.90;;;;;;5022960;28;20229;-69
2022/01/29 01:30:59;;;;;;;19.80;11.10;;;4.50;99.90;;;;;;5022464;28;20963;-69
2022/01/29 01:33:24;;;;;;;20.10;11.90;;;4.40;99.90;;;;;;5021989;28;20447;-69
2022/01/29 01:35:54;;;;;;;18.03;10.73;;;4.40;99.90;;;;;;5019833;28;20689;-69
2022/01/29 01:38:24;;;;;;;16.63;10.43;;;4.30;99.90;;;;;;4991952;28;20190;-69
2022/01/29 01:40:55;;;;;;;16.07;9.87;;;4.40;99.90;;;;;;5022027;28;20446;-69
2022/01/29 01:43:21;;;;;;;21.33;12.60;;;4.40;99.90;;;;;;5005915;28;20439;-69
2022/01/29 01:45:47;;;;;;;19.20;11.53;;;4.30;99.90;;;;;;5025010;28;21196;-68
2022/01/29 01:48:13;;;;;;;20.40;9.90;;;4.30;99.90;;;;;;5024679;28;20498;-68
2022/01/29 01:50:39;;;;;;;18.57;11.00;;;4.30;99.90;;;;;;5024925;28;20191;-68
2022/01/29 01:53:05;;;;;;;21.20;11.70;;;4.10;99.90;;;;;;5021024;28;20443;-69
2022/01/29 01:55:31;;;;;;;19.63;11.80;;;4.20;99.90;;;;;;5028432;28;20451;-69
2022/01/29 01:57:57;;;;;;;19.80;10.33;;;4.20;99.90;;;;;;5026499;28;21020;-69
2022/01/29 02:00:27;;;;;;;19.20;11.00;;;4.10;99.90;;;;;;5025720;28;20972;-69
2022/01/29 02:02:53;;;;;;;15.60;10.17;;;4.20;99.90;;;;;;5026303;28;20517;-68
2022/01/29 02:05:18;;;;;;;18.90;11.27;;;4.20;99.90;;;;;;5027206;28;20653;-69
2022/01/29 02:07:45;;;;;;;20.43;11.43;;;4.20;99.90;;;;;;5007521;28;21258;-68
2022/01/29 02:10:12;;;;;;;23.03;10.53;;;4.20;99.90;;;;;;5026700;28;20733;-68
2022/01/29 02:12:48;;;;;;;20.93;11.30;;;4.20;99.90;;;;;;5025010;28;20891;-68
2022/01/29 02:15:15;;;;;;;19.93;10.97;;;4.20;99.90;;;;;;5028264;28;20981;-69
2022/01/29 02:17:41;;;;;;;13.80;10.17;;;4.10;99.90;;;;;;5025547;28;20451;-69
2022/01/29 02:20:07;;;;;;;16.70;10.90;;;4.00;99.90;;;;;;5025357;28;20517;-68
2022/01/29 02:22:33;;;;;;;19.60;11.10;;;4.00;99.90;;;;;;5025450;28;20212;-69
2022/01/29 02:24:58;;;;;;;22.03;13.63;;;4.00;99.90;;;;;;5023551;28;20471;-69
2022/01/29 02:27:26;;;;;;;14.90;9.50;;;4.00;99.90;;;;;;5026441;28;20737;-69
2022/01/29 02:29:52;;;;;;;18.87;11.63;;;4.00;99.90;;;;;;5023292;28;20204;-69
2022/01/29 02:32:17;;;;;;;17.03;10.40;;;4.00;99.90;;;;;;5025847;28;20419;-69
2022/01/29 02:34:44;;;;;;;17.03;10.40;;;3.90;99.90;;;;;;5023883;28;20238;-69
2022/01/29 02:37:10;;;;;;;18.90;12.17;;;3.90;99.90;;;;;;5029490;28;20234;-68
2022/01/29 02:39:36;;;;;;;20.40;11.93;;;3.90;99.90;;;;;;5029362;28;20502;-68
2022/01/29 02:42:03;;;;;;;23.53;14.27;;;3.90;99.90;;;;;;5028271;28;20455;-68
2022/01/29 02:44:30;;;;;;;18.40;11.97;;;3.80;99.90;;;;;;5026749;28;20673;-69
2022/01/29 02:47:08;;;;;;;20.03;13.53;;;3.80;99.90;;;;;;5024838;28;20449;-68
2022/01/29 02:49:34;;;;;;;22.40;13.07;;;3.80;99.90;;;;;;5028001;28;20899;-68
2022/01/29 02:52:00;;;;;;;22.90;13.20;;;3.80;99.90;;;;;;5025488;28;20450;-69
2022/01/29 02:54:26;;;;;;;21.93;15.20;;;3.80;99.90;;;;;;5028321;28;20467;-69
2022/01/29 02:56:52;;;;;;;23.53;14.00;;;3.90;99.90;;;;;;5026619;28;20752;-69
2022/01/29 02:59:18;;;;;;;25.83;13.50;;;3.90;99.90;;;;;;5022675;28;20533;-69
2022/01/29 03:01:43;;;;;;;28.07;15.93;;;3.80;99.90;;;;;;5027167;28;20879;-68
2022/01/29 03:04:09;;;;;;;19.30;14.30;;;3.80;99.90;;;;;;5025294;28;20458;-69
2022/01/29 03:06:36;;;;;;;25.57;15.30;;;3.80;99.90;;;;;;5026848;28;20194;-69
2022/01/29 03:09:03;;;;;;;27.97;15.30;;;3.80;99.90;;;;;;5022725;28;20463;-69
2022/01/29 03:11:29;;;;;;;21.43;12.93;;;3.80;99.90;;;;;;5028003;28;20497;-68
2022/01/29 03:13:54;;;;;;;22.47;14.30;;;3.70;99.90;;;;;;5026708;28;20435;-69
2022/01/29 03:16:20;;;;;;;23.90;15.50;;;3.70;99.90;;;;;;5026643;28;20238;-68
2022/01/29 03:18:45;;;;;;;26.83;14.60;;;3.60;99.90;;;;;;5025814;28;20298;-69
2022/01/29 03:21:11;;;;;;;19.93;12.03;;;3.70;99.90;;;;;;5025288;28;20274;-68
2022/01/29 03:23:37;;;;;;;26.47;14.07;;;3.70;99.90;;;;;;5025586;28;20183;-68
2022/01/29 03:26:04;;;;;;;25.17;14.17;;;3.70;99.90;;;;;;5027725;28;20478;-68
2022/01/29 03:28:30;;;;;;;25.23;14.47;;;3.60;99.90;;;;;;5023310;28;20209;-69
2022/01/29 03:30:56;;;;;;;25.60;14.70;;;3.60;99.90;;;;;;5024816;28;21153;-68
2022/01/29 03:33:22;;;;;;;23.00;13.80;;;3.60;99.90;;;;;;5024334;28;20431;-69
2022/01/29 03:35:49;;;;;;;25.10;14.37;;;3.60;99.90;;;;;;5024807;28;20463;-69
2022/01/29 03:38:15;;;;;;;23.20;13.87;;;3.70;99.90;;;;;;5024535;28;20451;-68
2022/01/29 03:40:41;;;;;;;21.07;12.97;;;3.70;99.90;;;;;;5023550;28;20440;-68
2022/01/29 03:43:11;;;;;;;20.20;12.20;;;3.70;99.90;;;;;;5024336;28;20462;-68
2022/01/29 03:45:36;;;;;;;18.40;10.53;;;3.70;99.90;;;;;;5024772;28;20465;-69
2022/01/29 03:48:03;;;;;;;25.20;13.87;;;3.60;99.90;;;;;;5019262;28;20463;-69
2022/01/29 03:50:29;;;;;;;23.13;12.73;;;3.60;99.90;;;;;;5023235;28;20204;-68
2022/01/29 03:52:54;;;;;;;22.80;13.83;;;3.60;99.90;;;;;;5022909;28;20431;-68
2022/01/29 03:55:20;;;;;;;21.33;12.23;;;3.60;99.90;;;;;;5025106;28;20209;-68
2022/01/29 03:57:46;;;;;;;23.50;12.43;;;3.60;99.90;;;;;;5021618;28;20200;-68
2022/01/29 04:00:13;;;;;;;20.87;12.10;;;3.60;99.90;;;;;;5021336;28;20192;-68
2022/01/29 04:02:38;;;;;;;21.60;12.53;;;3.60;99.90;;;;;;5023871;28;20439;-68
2022/01/29 04:05:04;;;;;;;23.33;12.33;;;3.60;99.90;;;;;;5026424;28;20549;-68
2022/01/29 04:07:30;;;;;;;22.20;13.57;;;3.60;99.90;;;;;;5021087;28;20306;-68
2022/01/29 04:09:56;;;;;;;26.70;13.30;;;3.60;99.90;;;;;;5023580;28;20501;-69
2022/01/29 04:12:24;;;;;;;17.20;11.73;;;3.60;99.90;;;;;;5026416;28;20184;-69
2022/01/29 04:14:52;;;;;;;27.10;12.80;;;3.60;99.90;;;;;;5023588;28;20204;-69
2022/01/29 04:17:17;;;;;;;26.27;11.97;;;3.60;99.90;;;;;;5026401;28;20824;-69
2022/01/29 04:19:43;;;;;;;22.80;13.63;;;3.60;99.90;;;;;;5022242;28;20447;-69
2022/01/29 04:22:08;;;;;;;19.63;10.80;;;3.60;99.90;;;;;;5023693;28;20200;-69
2022/01/29 04:24:34;;;;;;;16.97;10.20;;;3.60;99.90;;;;;;5025456;28;20239;-69
2022/01/29 04:27:03;;;;;;;23.60;12.10;;;3.60;99.90;;;;;;5022460;28;20208;-68
2022/01/29 04:29:37;;;;;;;20.23;10.90;;;3.60;99.90;;;;;;5024256;28;20209;-69
2022/01/29 04:32:11;;;;;;;18.97;11.17;;;3.60;99.90;;;;;;5023591;28;20426;-69
2022/01/29 04:34:37;;;;;;;20.13;11.73;;;3.60;99.90;;;;;;5021208;28;20469;-69
2022/01/29 04:37:03;;;;;;;22.90;13.90;;;3.60;99.90;;;;;;5025430;28;20434;-69
2022/01/29 04:39:28;;;;;;;19.17;11.43;;;3.60;99.90;;;;;;5025222;28;20680;-69
2022/01/29 04:41:54;;;;;;;16.70;10.27;;;3.60;99.90;;;;;;5021970;28;20227;-69
2022/01/29 04:44:19;;;;;;;21.43;12.77;;;3.50;99.90;;;;;;5023634;28;20680;-69
2022/01/29 04:46:45;;;;;;;23.10;12.80;;;3.60;99.90;;;;;;5023788;28;20204;-69
2022/01/29 04:49:11;;;;;;;21.90;13.60;;;3.50;99.90;;;;;;5023093;28;20212;-69
2022/01/29 04:51:36;;;;;;;25.40;12.30;;;3.50;99.90;;;;;;5023033;28;20215;-69
2022/01/29 04:54:02;;;;;;;22.83;12.30;;;3.60;99.90;;;;;;5023861;28;20189;-69
2022/01/29 04:56:28;;;;;;;17.33;10.30;;;3.50;99.90;;;;;;5023869;28;20172;-69
2022/01/29 04:58:54;;;;;;;18.63;11.43;;;3.50;99.90;;;;;;5025094;28;20987;-69
2022/01/29 05:01:19;;;;;;;21.20;9.83;;;3.50;99.90;;;;;;5023270;28;20316;-69
2022/01/29 05:03:45;;;;;;;21.00;11.83;;;3.50;99.90;;;;;;5023501;28;20196;-69
2022/01/29 05:06:12;;;;;;;17.97;11.00;;;3.50;99.90;;;;;;5025383;28;20255;-68
2022/01/29 05:08:38;;;;;;;20.43;10.17;;;3.50;99.90;;;;;;5024248;28;20577;-68
2022/01/29 05:11:04;;;;;;;13.33;9.60;;;3.50;99.90;;;;;;5005932;28;20434;-69
2022/01/29 05:13:31;;;;;;;24.10;13.03;;;3.60;99.90;;;;;;5025516;28;20439;-69
2022/01/29 05:17:15;;;;;;;13.63;9.50;;;3.50;99.90;;;;;;5023404;28;20458;-69
2022/01/29 05:26:59;;;;;;;24.77;12.63;;;3.30;99.90;;;;;;5024225;28;20426;-69
2022/01/29 05:29:28;;;;;;;20.87;11.80;;;3.40;99.90;;;;;;5024978;28;20460;-70
2022/01/29 05:31:54;;;;;;;24.07;14.13;;;3.40;99.90;;;;;;5029288;28;20427;-68
2022/01/29 05:34:21;;;;;;;23.57;10.53;;;3.40;99.90;;;;;;5024736;28;20535;-69
2022/01/29 05:36:47;;;;;;;19.90;12.30;;;3.30;99.90;;;;;;5030962;28;20899;-69
2022/01/29 05:39:13;;;;;;;21.80;12.13;;;3.30;99.90;;;;;;5028724;28;20508;-69
2022/01/29 05:41:38;;;;;;;16.10;9.00;;;3.30;99.90;;;;;;5026356;28;20481;-69
2022/01/29 05:44:05;;;;;;;19.67;11.57;;;3.20;99.90;;;;;;5025900;28;20735;-69
2022/01/29 05:46:30;;;;;;;15.40;9.70;;;3.20;99.90;;;;;;5025940;28;20180;-69
2022/01/29 05:48:56;;;;;;;14.67;9.50;;;3.30;99.90;;;;;;5023484;28;20466;-69
2022/01/29 05:51:21;;;;;;;24.00;10.70;;;3.30;99.90;;;;;;5027418;28;20190;-68
2022/01/29 05:53:47;;;;;;;15.67;11.10;;;3.30;99.90;;;;;;5026737;28;20189;-69
2022/01/29 05:56:13;;;;;;;22.83;10.60;;;3.30;99.90;;;;;;5028015;28;20267;-68
2022/01/29 05:58:38;;;;;;;17.43;9.00;;;3.30;99.90;;;;;;5026404;28;20204;-69
2022/01/29 06:01:04;;;;;;;22.83;11.67;;;3.30;99.90;;;;;;5025260;28;20577;-69
2022/01/29 06:03:30;;;;;;;23.13;9.77;;;3.30;99.90;;;;;;5026803;28;20487;-69
2022/01/29 06:05:55;;;;;;;19.27;11.23;;;3.40;99.90;;;;;;5024784;28;20462;-69
2022/01/29 06:08:21;;;;;;;19.20;11.40;;;3.40;99.90;;;;;;5026270;28;20777;-69
2022/01/29 06:10:47;;;;;;;21.13;10.23;;;3.40;99.90;;;;;;5028180;28;20697;-69
2022/01/29 06:13:14;;;;;;;20.87;11.93;;;3.40;99.90;;;;;;5026050;28;20180;-71
2022/01/29 06:15:43;;;;;;;20.43;11.80;;;3.40;99.90;;;;;;5028402;28;20216;-69
2022/01/29 06:18:15;;;;;;;17.10;10.57;;;3.50;99.90;;;;;;5023223;28;20434;-69
2022/01/29 06:20:41;;;;;;;16.57;10.80;;;3.50;99.90;;;;;;5027413;28;20435;-69
2022/01/29 06:23:09;;;;;;;14.83;8.77;;;3.50;99.90;;;;;;5025122;28;20865;-69
2022/01/29 06:25:35;;;;;;;24.73;11.60;;;3.50;99.90;;;;;;5028336;28;20874;-69
2022/01/29 06:28:00;;;;;;;23.20;11.70;;;3.50;99.90;;;;;;5028648;28;20605;-69
2022/01/29 06:30:26;;;;;;;10.70;6.57;;;3.60;99.90;;;;;;5026057;28;20275;-69
2022/01/29 06:32:51;;;;;;;21.33;13.07;;;3.50;99.90;;;;;;5027216;28;20775;-69
2022/01/29 06:35:17;;;;;;;21.50;12.00;;;3.50;99.90;;;;;;5023966;28;20208;-69
2022/01/29 06:37:43;;;;;;;16.07;9.33;;;3.50;99.90;;;;;;5026313;28;20705;-69
2022/01/29 06:40:09;;;;;;;15.50;11.33;;;3.50;99.90;;;;;;5025973;28;20200;-69
2022/01/29 06:42:35;;;;;;;21.03;12.20;;;3.40;99.90;;;;;;5026815;28;20189;-68
2022/01/29 06:45:01;;;;;;;14.07;10.77;;;3.40;99.90;;;;;;5026381;28;21193;-69
2022/01/29 06:47:26;;;;;;;18.20;11.60;;;3.40;99.90;;;;;;5023627;28;20200;-69
2022/01/29 06:49:52;;;;;;;23.47;13.43;;;3.40;99.90;;;;;;5026770;28;20237;-69
2022/01/29 06:52:17;;;;;;;21.57;12.90;;;3.40;99.90;;;;;;5026056;28;20662;-69
2022/01/29 06:54:43;;;;;;;24.40;13.23;;;3.50;99.90;;;;;;5028495;28;20732;-69
2022/01/29 06:57:09;;;;;;;20.53;13.20;;;3.60;99.90;;;;;;5025629;28;20187;-69
2022/01/29 06:59:34;;;;;;;21.20;12.87;;;3.70;99.90;;;;;;5026012;28;20191;-69
2022/01/29 07:02:00;;;;;;;20.63;11.27;;;3.70;99.90;;;;;;5025995;28;20204;-70
2022/01/29 07:04:25;;;;;;;22.43;12.13;;;3.70;99.90;;;;;;5023261;28;20196;-69
2022/01/29 07:06:51;;;;;;;20.33;13.30;;;3.80;99.90;;;;;;5023234;28;20184;-69
2022/01/29 07:09:17;;;;;;;21.57;12.30;;;3.90;99.90;;;;;;5008586;28;20216;-69
2022/01/29 07:11:44;;;;;;;19.37;12.10;;;3.90;99.90;;;;;;5024035;28;20185;-69
2022/01/29 07:14:16;;;;;;;24.37;14.63;;;3.90;99.90;;;;;;5026403;28;20215;-69
2022/01/29 07:16:43;;;;;;;30.40;12.47;;;3.90;99.90;;;;;;5023703;28;20968;-69
2022/01/29 07:19:09;;;;;;;21.50;11.90;;;3.90;99.90;;;;;;5023895;28;20435;-69
2022/01/29 07:21:35;;;;;;;19.13;9.50;;;3.80;99.90;;;;;;5025887;28;20941;-69
2022/01/29 07:24:01;;;;;;;17.77;11.33;;;3.90;99.90;;;;;;5021869;28;20439;-69
2022/01/29 07:26:27;;;;;;;22.00;12.67;;;3.90;99.90;;;;;;5025324;28;20970;-68
2022/01/29 07:28:52;;;;;;;19.70;11.20;;;3.90;99.90;;;;;;5024560;28;20201;-69
2022/01/29 07:31:18;;;;;;;17.83;10.30;;;3.90;99.90;;;;;;5024178;28;20744;-69
2022/01/29 07:33:43;;;;;;;15.63;10.33;;;3.90;99.90;;;;;;5024012;28;20203;-70
2022/01/29 07:36:09;;;;;;;19.60;11.67;;;3.90;99.90;;;;;;5023747;28;20287;-68
2022/01/29 07:38:35;;;;;;;15.43;9.70;;;3.90;99.90;;;;;;5023378;28;20196;-68
2022/01/29 07:41:00;;;;;;;18.60;11.10;;;3.90;99.90;;;;;;5022480;28;20188;-70
2022/01/29 07:43:26;;;;;;;19.33;11.27;;;3.90;99.90;;;;;;5025364;28;20646;-70
2022/01/29 07:45:51;;;;;;;18.07;8.80;;;3.90;99.90;;;;;;5024800;28;20216;-69
2022/01/29 07:48:17;;;;;;;15.30;9.97;;;4.00;99.90;;;;;;5024390;28;20205;-69
2022/01/29 07:50:42;;;;;;;16.23;10.13;;;4.00;99.90;;;;;;5024928;28;20220;-68
2022/01/29 07:53:08;;;;;;;17.60;10.87;;;4.10;99.90;;;;;;5026347;28;20188;-70
2022/01/29 07:55:34;;;;;;;20.43;10.33;;;4.10;99.90;;;;;;5028907;28;20295;-69
2022/01/29 07:58:05;;;;;;;15.00;10.13;;;4.10;99.90;;;;;;5020637;28;20714;-69
2022/01/29 08:00:30;;;;;;;16.03;9.27;;;4.10;99.90;;;;;;5026343;28;20566;-69
2022/01/29 08:02:56;;;;;;;13.17;9.30;;;4.10;99.90;;;;;;5028406;28;20434;-69
2022/01/29 08:05:22;;;;;;;12.00;9.10;;;4.10;99.90;;;;;;5023904;28;20601;-68
2022/01/29 08:07:49;;;;;;;14.20;9.70;;;4.00;99.90;;;;;;5025632;28;20313;-69
2022/01/29 08:10:14;;;;;;;12.60;8.60;;;4.10;99.90;;;;;;5020830;28;20475;-69
2022/01/29 08:12:40;;;;;;;16.77;10.40;;;4.20;99.90;;;;;;5005983;28;20188;-68
2022/01/29 08:15:07;;;;;;;12.50;7.97;;;4.20;99.90;;;;;;5025153;28;20705;-68
2022/01/29 08:17:32;;;;;;;14.43;9.57;;;4.20;99.90;;;;;;5022680;28;20224;-69
2022/01/29 08:19:58;;;;;;;14.37;9.90;;;4.20;99.90;;;;;;5025530;28;20451;-69
2022/01/29 08:22:24;;;;;;;17.63;8.63;;;4.20;99.90;;;;;;5023896;28;20844;-69
2022/01/29 08:24:52;;;;;;;17.60;9.13;;;4.20;99.90;;;;;;5021440;28;20448;-69
2022/01/29 08:27:18;;;;;;;15.43;9.17;;;4.20;99.90;;;;;;5018987;28;20193;-69
2022/01/29 08:29:43;;;;;;;12.17;8.40;;;4.30;99.90;;;;;;5023680;28;21041;-69
2022/01/29 08:32:09;;;;;;;12.70;8.27;;;4.30;99.90;;;;;;5026640;28;20435;-68
2022/01/29 08:34:35;;;;;;;13.53;9.33;;;4.30;99.90;;;;;;5025537;28;20266;-69
2022/01/29 08:37:03;;;;;;;13.17;7.90;;;4.20;99.90;;;;;;5020979;28;20534;-69
2022/01/29 08:39:28;;;;;;;14.87;8.80;;;4.20;99.90;;;;;;5024734;28;20658;-69
2022/01/29 08:41:55;;;;;;;15.93;9.47;;;4.30;99.90;;;;;;5020814;28;20518;-69
2022/01/29 08:44:20;;;;;;;16.20;7.97;;;4.30;99.90;;;;;;5023985;28;20308;-69
2022/01/29 08:46:46;;;;;;;17.50;9.00;;;4.30;99.90;;;;;;5021618;28;20534;-69
2022/01/29 08:49:12;;;;;;;14.83;8.50;;;4.40;99.90;;;;;;5024169;28;20645;-70
2022/01/29 08:51:37;;;;;;;12.10;8.03;;;4.40;99.90;;;;;;5023263;28;20185;-68
2022/01/29 08:54:03;;;;;;;12.73;8.10;;;4.40;99.90;;;;;;5020947;28;20191;-68
2022/01/29 08:56:29;;;;;;;10.80;8.20;;;4.40;99.90;;;;;;5024235;28;20215;-69
2022/01/29 08:58:55;;;;;;;15.83;9.53;;;4.40;99.90;;;;;;5004407;28;20880;-68
2022/01/29 09:01:21;;;;;;;18.43;8.60;;;4.40;99.90;;;;;;5028720;28;20196;-69
2022/01/29 09:03:46;;;;;;;13.00;9.13;;;4.40;99.90;;;;;;5027962;28;20232;-68
2022/01/29 09:06:12;;;;;;;14.43;9.20;;;4.50;99.90;;;;;;5026906;28;21473;-68
2022/01/29 09:08:39;;;;;;;12.77;9.10;;;4.50;99.90;;;;;;5026911;28;20195;-68
2022/01/29 09:11:05;;;;;;;14.20;8.37;;;4.40;99.90;;;;;;5028898;28;20184;-69
2022/01/29 09:13:31;;;;;;;12.40;8.77;;;4.50;99.90;;;;;;5026736;28;20439;-68
2022/01/29 09:15:57;;;;;;;12.47;7.73;;;4.50;99.90;;;;;;5027221;28;20458;-68
2022/01/29 09:18:23;;;;;;;13.00;8.53;;;4.60;99.90;;;;;;5024769;28;20188;-68
2022/01/29 09:20:49;;;;;;;19.20;7.77;;;4.50;99.90;;;;;;5025891;28;20437;-71
2022/01/29 09:23:15;;;;;;;17.93;10.43;;;4.60;99.90;;;;;;5025167;28;20442;-68
2022/01/29 09:25:41;;;;;;;15.47;9.97;;;4.70;99.90;;;;;;5028565;28;20207;-68
2022/01/29 09:28:08;;;;;;;15.33;8.30;;;4.60;99.90;;;;;;5025828;28;20247;-69
2022/01/29 09:30:34;;;;;;;16.20;9.63;;;4.80;99.90;;;;;;5027655;28;20239;-69
2022/01/29 09:33:00;;;;;;;14.53;8.50;;;4.80;99.90;;;;;;5025699;28;20462;-69
2022/01/29 09:35:27;;;;;;;15.67;9.33;;;4.80;99.90;;;;;;5029553;28;20959;-69
2022/01/29 09:37:54;;;;;;;15.43;8.80;;;4.80;99.90;;;;;;5027275;28;20433;-69
2022/01/29 09:40:20;;;;;;;16.10;10.23;;;4.80;99.90;;;;;;5027338;28;20867;-70
2022/01/29 09:42:48;;;;;;;14.27;9.67;;;4.70;99.90;;;;;;5030240;28;21057;-67
2022/01/29 09:45:15;;;;;;;13.87;8.90;;;4.70;99.90;;;;;;5031500;28;20447;-70
2022/01/29 09:47:46;;;;;;;12.83;8.37;;;4.70;99.90;;;;;;5030157;28;20531;-70
2022/01/29 09:50:16;;;;;;;13.23;8.17;;;4.80;99.90;;;;;;5029654;28;20415;-71
2022/01/29 09:52:43;;;;;;;12.83;7.43;;;4.80;99.90;;;;;;5026617;28;21118;-71
2022/01/29 09:55:09;;;;;;;11.13;7.17;;;4.80;99.90;;;;;;5034040;28;20486;-70
2022/01/29 09:57:35;;;;;;;14.10;8.17;;;4.70;99.90;;;;;;5026315;28;20447;-70
2022/01/29 10:00:02;;;;;;;13.40;8.83;;;4.70;99.90;;;;;;5026530;28;20438;-70
2022/01/29 10:02:27;;;;;;;14.73;8.50;;;4.70;99.90;;;;;;5028989;28;20457;-70
2022/01/29 10:04:55;;;;;;;13.97;8.90;;;4.70;99.90;;;;;;5026244;28;20463;-70
2022/01/29 10:07:28;;;;;;;11.77;7.07;;;4.80;99.90;;;;;;5032771;28;20189;-67
2022/01/29 10:09:54;;;;;;;12.43;8.43;;;4.80;99.90;;;;;;5026764;28;20463;-70
2022/01/29 10:12:20;;;;;;;13.47;8.17;;;4.70;99.90;;;;;;5024619;28;20501;-70
2022/01/29 10:14:50;;;;;;;10.63;6.33;;;4.70;99.90;;;;;;5028173;28;20459;-70
2022/01/29 10:17:44;;;;;;;11.80;6.90;;;4.70;99.90;;;;;;5025355;28;20189;-70
2022/01/29 10:20:10;;;;;;;15.37;8.77;;;4.70;99.90;;;;;;5025941;28;20439;-69
2022/01/29 10:22:36;;;;;;;15.93;6.43;;;4.60;99.90;;;;;;5026087;28;20447;-71
2022/01/29 10:25:31;;;;;;;16.63;8.57;;;4.70;99.90;;;;;;5026090;28;20234;-69
2022/01/29 10:28:13;;;;;;;11.70;7.90;;;4.70;99.90;;;;;;5026011;28;20601;-68
2022/01/29 10:30:55;;;;;;;11.90;7.00;;;4.80;99.90;;;;;;5026037;28;20486;-68
2022/01/29 10:33:29;;;;;;;12.30;7.00;;;4.80;99.90;;;;;;5005918;28;20900;-68
2022/01/29 10:35:56;;;;;;;11.50;7.07;;;4.90;99.90;;;;;;5025332;28;20956;-68
2022/01/29 10:38:28;;;;;;;12.43;7.77;;;4.90;99.90;;;;;;5024391;28;20431;-68
2022/01/29 10:41:20;;;;;;;9.10;7.23;;;4.80;99.90;;;;;;5025860;28;20963;-68
2022/01/29 10:43:58;;;;;;;12.33;7.80;;;4.80;99.90;;;;;;5025181;28;20467;-68
2022/01/29 10:46:29;;;;;;;13.20;6.70;;;4.80;99.90;;;;;;5023421;28;20643;-69
2022/01/29 10:48:57;;;;;;;13.10;9.10;;;4.90;99.90;;;;;;5026566;28;20455;-69
2022/01/29 10:51:23;;;;;;;15.93;8.57;;;4.90;99.90;;;;;;5027190;28;20602;-68
2022/01/29 10:53:49;;;;;;;12.80;7.90;;;4.90;99.90;;;;;;5024464;28;20446;-68
2022/01/29 10:56:14;;;;;;;11.20;6.63;;;4.90;99.90;;;;;;5029455;28;20447;-69
2022/01/29 10:58:42;;;;;;;12.20;8.00;;;4.90;99.90;;;;;;5023689;28;20501;-68
2022/01/29 11:01:19;;;;;;;13.63;7.03;;;4.90;99.90;;;;;;5025846;28;20189;-69
2022/01/29 11:03:45;;;;;;;9.97;5.27;;;5.00;99.90;;;;;;5025492;28;20512;-69
2022/01/29 11:06:16;;;;;;;9.40;6.37;;;4.90;99.90;;;;;;5027522;28;20494;-69
2022/01/29 11:08:43;;;;;;;10.33;6.17;;;4.80;99.90;;;;;;5030190;28;20455;-68
2022/01/29 11:11:11;;;;;;;11.30;7.17;;;4.90;99.90;;;;;;5026021;28;20513;-68
2022/01/29 11:13:39;;;;;;;11.07;7.57;;;4.90;99.90;;;;;;5026354;28;21024;-68
2022/01/29 11:16:05;;;;;;;10.77;7.13;;;4.90;99.90;;;;;;5024604;28;20470;-68
2022/01/29 11:18:34;;;;;;;10.87;6.90;;;4.90;99.90;;;;;;5027490;28;20450;-68
2022/01/29 11:21:02;;;;;;;10.77;6.33;;;5.00;99.90;;;;;;5028370;28;20431;-69
2022/01/29 11:23:29;;;;;;;7.43;5.83;;;5.00;99.90;;;;;;5028088;28;20463;-69
2022/01/29 11:25:56;;;;;;;13.63;4.50;;;5.10;99.90;;;;;;5009049;28;20470;-68
2022/01/29 11:28:26;;;;;;;8.90;6.47;;;5.10;99.90;;;;;;5024929;28;20463;-69
2022/01/29 11:31:11;;;;;;;8.33;5.90;;;5.10;99.90;;;;;;5025825;28;20510;-68
2022/01/29 11:33:58;;;;;;;8.40;6.40;;;5.10;99.90;;;;;;5029618;28;20431;-68
2022/01/29 11:36:48;;;;;;;8.40;5.20;;;5.10;99.90;;;;;;5025463;28;20423;-68
2022/01/29 11:39:26;;;;;;;5.83;4.70;;;5.10;99.90;;;;;;5024514;28;20821;-68
2022/01/29 11:42:11;;;;;;;9.67;5.90;;;5.10;99.90;;;;;;5026417;28;20833;-68
2022/01/29 11:44:37;;;;;;;5.63;4.83;;;5.10;99.90;;;;;;5025226;28;20469;-69
2022/01/29 11:47:22;;;;;;;6.30;4.47;;;5.10;99.90;;;;;;5023125;28;20453;-69
2022/01/29 11:49:48;;;;;;;9.33;5.27;;;5.10;99.90;;;;;;5026495;28;20471;-68
2022/01/29 11:52:25;;;;;;;9.27;5.83;;;5.20;99.90;;;;;;5026039;28;20449;-68
2022/01/29 11:55:06;;;;;;;5.33;4.80;;;5.20;99.90;;;;;;5025070;28;20453;-68
2022/01/29 11:57:32;;;;;;;7.47;4.53;;;5.20;99.90;;;;;;5024823;28;20443;-69
2022/01/29 12:00:34;;;;;;;7.13;4.93;;;5.20;99.90;;;;;;5024198;28;20450;-69
2022/01/29 12:03:00;;;;;;;6.30;4.40;;;5.20;99.90;;;;;;5023446;28;20473;-69
2022/01/29 12:05:30;;;;;;;5.13;3.80;;;5.10;99.90;;;;;;5023423;28;20486;-69
2022/01/29 12:08:11;;;;;;;11.87;5.83;;;5.10;99.90;;;;;;5025026;28;20184;-69
2022/01/29 12:10:39;;;;;;;7.23;5.27;;;5.10;99.90;;;;;;5026206;28;20416;-69
2022/01/29 12:13:11;;;;;;;5.97;4.50;;;5.10;99.90;;;;;;5023247;28;20431;-68
2022/01/29 12:15:38;;;;;;;7.60;4.60;;;5.10;99.90;;;;;;5023142;28;20466;-68
2022/01/29 12:18:24;;;;;;;4.67;3.60;;;5.10;99.90;;;;;;5024486;28;20431;-69
2022/01/29 12:20:50;;;;;;;7.60;5.27;;;5.10;99.90;;;;;;5022679;28;20507;-69
2022/01/29 12:23:16;;;;;;;6.53;5.40;;;5.10;99.90;;;;;;5025569;28;20439;-68
2022/01/29 12:25:41;;;;;;;5.73;4.30;;;5.10;99.90;;;;;;5022754;28;20215;-68
2022/01/29 12:28:12;;;;;;;7.03;5.13;;;5.10;99.90;;;;;;5025458;28;21464;-69
2022/01/29 12:30:39;;;;;;;6.43;4.87;;;5.10;99.90;;;;;;5022643;28;20755;-69
2022/01/29 12:33:12;;;;;;;8.10;4.70;;;5.10;99.90;;;;;;5024941;28;20526;-69
2022/01/29 12:35:58;;;;;;;8.17;5.27;;;5.10;99.90;;;;;;5025251;28;20451;-68
2022/01/29 12:38:30;;;;;;;6.10;4.67;;;5.20;99.90;;;;;;5022631;28;20529;-68
2022/01/29 12:41:04;;;;;;;6.03;3.60;;;5.10;99.90;;;;;;5025709;28;20416;-68
2022/01/29 12:43:58;;;;;;;8.27;4.20;;;5.10;99.90;;;;;;5026036;28;20449;-68
2022/01/29 12:46:27;;;;;;;7.47;4.67;;;5.20;99.90;;;;;;5021996;28;20605;-69
2022/01/29 12:49:10;;;;;;;6.00;4.70;;;5.20;99.90;;;;;;5026020;28;20482;-69
2022/01/29 12:51:49;;;;;;;7.40;5.50;;;5.20;99.90;;;;;;5026028;28;20466;-69
2022/01/29 12:54:14;;;;;;;4.80;4.30;;;5.20;99.90;;;;;;5024279;28;20431;-69